Commercial Pilot

Spirit Aviation offers a Commercial Pilot course. The commercial rating allows one to perform flying services for hire. Commercial pilot applicants will further develop their skills relating to aircraft control and aviation knowledge. And even if it’s not your career goal to be a professional pilot, there’s nothing that delivers the incredible sensation of freedom & the feeling of self-reliance you earn when you conquer your cockpit as a Commercial Pilot.

Ground Training

Your ground training is accomplished using our state-of-the-art Computer Based Instruction (CBI) program that uses fully interactive graphics and full motion video.

Flight Training

Flight training is completed in new Skyhawk aircraft. Our aircraft are all equipped with the latest radios and avionics (including GPS receivers). You’ll practice controlling the aircraft precisely and further develop your private and instrument flying skills.

Prerequisites

To start Commercial training you need:

  • Private Pilot Certificate, preferably an instrument rating
  • Third class medical, second class medical before operating for hire
  • 250 hours of flight time prior to taking checkride

NOAA Weather

KHQU

Last Updated on Apr 21 2024, 1:55 pm EDT

Current Conditions: Light Rain

NOAA Icon

Temp: 55°F

Wind: NE at 9mph

Humidity: 86%

Windchill: 52°F

Your 5-Day Forecast at a Glance

KHQU Metar

KHQU 211835Z AUTO 01010G16KT 10SM -RA SCT009 OVC017 12/11 A2999 RMK AO2 P0003 T01190107